Festivo — EAEQ — position and weather

sailwx.info

Track history (hours):
 
Tides and Currents Weather Stations Pressure Air Temp Water Temp Dewpoint Dewpoint Depression Visibility Wind Speed Wind Dir Waves Ship Positions

Festivo

Last reported at 2016-Feb-06 20:09 UTC. Time now 2016-Feb-07 03:41 UTC.
Position N 35°55' W 005°03'.

Length 136 m; draft 4.5 m.

Type: Cargo ship. MMSI: 225410000.

Date/timePositionNaut miles runAvg speedWind from/ knotsBaromVisibWave heightAir tempDewpointWater temp
2016-Feb-06 20:09N 35°55' W 005°03'711.6
2016-Feb-06 19:33N 35°56' W 005°12'7 6.8
2016-Feb-06 18:33N 35°54' W 005°19'0 0.0
2016-Feb-06 17:33N 35°54' W 005°19'0 0.0
2016-Feb-06 16:33N 35°54' W 005°19'5 5.1
2016-Feb-06 15:33N 35°57' W 005°14'8 0.2
2016-Feb-04 12:32N 36°03' W 005°09'9 9.0
2016-Feb-04 11:33N 35°57' W 005°17'4 3.7
2016-Feb-04 10:31N 35°54' W 005°19'0 0.0
2016-Feb-04 09:31N 35°54' W 005°19'0 0.0
2016-Feb-04 08:31N 35°54' W 005°19'1 0.7
2016-Feb-04 07:33N 35°54' W 005°19'9 8.5
2016-Feb-04 06:30N 35°59' W 005°10'  
2016-Jan-30 17:26N 35°54' W 005°12'6 7.4
2016-Jan-30 16:33N 35°54' W 005°19'0 0.0
2016-Jan-30 15:29N 35°54' W 005°19'0 0.1
2016-Jan-30 14:32N 35°54' W 005°19'0 0.0
2016-Jan-30 13:32N 35°54' W 005°19'0 0.0
2016-Jan-30 12:32N 35°54' W 005°19'0 0.0
2016-Jan-30 11:31N 35°54' W 005°19'0 0.0
2016-Jan-30 10:28N 35°54' W 005°19'0 0.1
2016-Jan-30 09:31N 35°54' W 005°19'0 0.1
2016-Jan-30 08:25N 35°54' W 005°19'1 0.8
2016-Jan-30 07:33N 35°54' W 005°19'9 8.7
2016-Jan-30 06:33N 35°59' W 005°10'2 0.1
2016-Jan-28 11:13N 36°01' W 005°11'811.8
2016-Jan-28 10:33N 35°55' W 005°18'2 2.1
2016-Jan-28 09:33N 35°54' W 005°19'0 0.0
2016-Jan-28 08:33N 35°54' W 005°19'0 0.1
2016-Jan-28 07:33N 35°54' W 005°19'1 1.5
2016-Jan-28 06:33N 35°55' W 005°18'  
Track history (hours):
 
Tides and Currents Weather Stations Pressure Air Temp Water Temp Dewpoint Dewpoint Depression Visibility Wind Speed Wind Dir Waves Ship Positions

Festivo

Last reported at 2016-Feb-06 20:09 UTC. Time now 2016-Feb-07 03:41 UTC.
Position N 35°55' W 005°03'.

Length 136 m; draft 4.5 m.

Type: Cargo ship. MMSI: 225410000.

Date/timePositionNaut miles runAvg speedWind from/ knotsBaromVisibWave heightAir tempDewpointWater temp
2016-Feb-06 20:09N 35°55' W 005°03'711.6
2016-Feb-06 19:33N 35°56' W 005°12'7 6.8
2016-Feb-06 18:33N 35°54' W 005°19'0 0.0
2016-Feb-06 17:33N 35°54' W 005°19'0 0.0
2016-Feb-06 16:33N 35°54' W 005°19'5 5.1
2016-Feb-06 15:33N 35°57' W 005°14'8 0.2
2016-Feb-04 12:32N 36°03' W 005°09'9 9.0
2016-Feb-04 11:33N 35°57' W 005°17'4 3.7
2016-Feb-04 10:31N 35°54' W 005°19'0 0.0
2016-Feb-04 09:31N 35°54' W 005°19'0 0.0
2016-Feb-04 08:31N 35°54' W 005°19'1 0.7
2016-Feb-04 07:33N 35°54' W 005°19'9 8.5
2016-Feb-04 06:30N 35°59' W 005°10'  
2016-Jan-30 17:26N 35°54' W 005°12'6 7.4
2016-Jan-30 16:33N 35°54' W 005°19'0 0.0
2016-Jan-30 15:29N 35°54' W 005°19'0 0.1
2016-Jan-30 14:32N 35°54' W 005°19'0 0.0
2016-Jan-30 13:32N 35°54' W 005°19'0 0.0
2016-Jan-30 12:32N 35°54' W 005°19'0 0.0
2016-Jan-30 11:31N 35°54' W 005°19'0 0.0
2016-Jan-30 10:28N 35°54' W 005°19'0 0.1
2016-Jan-30 09:31N 35°54' W 005°19'0 0.1
2016-Jan-30 08:25N 35°54' W 005°19'1 0.8
2016-Jan-30 07:33N 35°54' W 005°19'9 8.7
2016-Jan-30 06:33N 35°59' W 005°10'2 0.1
2016-Jan-28 11:13N 36°01' W 005°11'811.8
2016-Jan-28 10:33N 35°55' W 005°18'2 2.1
2016-Jan-28 09:33N 35°54' W 005°19'0 0.0
2016-Jan-28 08:33N 35°54' W 005°19'0 0.1
2016-Jan-28 07:33N 35°54' W 005°19'1 1.5
2016-Jan-28 06:33N 35°55' W 005°18'  

Dump ship's entire track history